createdAt,value
2023-04-09T00:01:09.060Z,19.80
2023-04-09T00:02:11.491Z,19.80
2023-04-09T00:03:14.016Z,19.80
2023-04-09T00:04:16.544Z,19.90
2023-04-09T00:05:19.071Z,19.90
2023-04-09T00:06:21.534Z,19.90
2023-04-09T00:07:23.956Z,19.90
2023-04-09T00:08:26.760Z,19.90
2023-04-09T00:09:29.215Z,19.90
2023-04-09T00:10:31.636Z,19.80
2023-04-09T00:11:34.060Z,19.80
2023-04-09T00:12:37.836Z,19.90
2023-04-09T00:13:40.437Z,19.80
2023-04-09T00:14:42.870Z,19.90
2023-04-09T00:15:46.522Z,19.80
2023-04-09T00:16:48.996Z,19.90
2023-04-09T00:17:52.388Z,19.90
2023-04-09T00:18:55.086Z,20.00
2023-04-09T00:19:57.710Z,20.00
2023-04-09T00:21:00.847Z,20.10
2023-04-09T00:22:03.626Z,20.00
2023-04-09T00:23:06.352Z,20.00
2023-04-09T00:24:09.189Z,20.10
2023-04-09T00:25:11.668Z,20.10
2023-04-09T00:26:14.183Z,20.10
2023-04-09T00:27:17.648Z,20.10
2023-04-09T00:28:20.156Z,20.10
2023-04-09T00:29:22.832Z,20.10
2023-04-09T00:30:31.425Z,20.10
2023-04-09T00:31:34.586Z,20.10
2023-04-09T00:32:37.646Z,20.10
2023-04-09T00:33:44.934Z,20.10
2023-04-09T00:34:47.727Z,20.10
2023-04-09T00:35:50.362Z,20.10
2023-04-09T00:36:52.981Z,20.10
2023-04-09T00:37:55.427Z,20.10
2023-04-09T00:38:58.873Z,20.10
2023-04-09T00:40:01.538Z,20.10
2023-04-09T00:41:04.244Z,20.10
2023-04-09T00:42:06.751Z,20.10
2023-04-09T00:43:09.520Z,20.10
2023-04-09T00:44:12.044Z,20.10
2023-04-09T00:45:14.636Z,20.10
2023-04-09T00:46:18.110Z,20.10
2023-04-09T00:47:21.010Z,20.00
2023-04-09T00:48:23.758Z,20.10
2023-04-09T00:49:26.633Z,20.10
2023-04-09T00:50:29.022Z,20.20
2023-04-09T00:51:31.747Z,19.90
2023-04-09T00:52:34.422Z,19.60
2023-04-09T00:53:37.009Z,19.40
2023-04-09T00:54:39.679Z,19.20
2023-04-09T00:55:42.155Z,19.00
2023-04-09T00:56:45.482Z,18.90
2023-04-09T00:57:48.058Z,18.70
2023-04-09T00:58:51.158Z,18.60
2023-04-09T00:59:53.980Z,18.50
2023-04-09T01:00:56.730Z,18.30
2023-04-09T01:01:59.396Z,18.40
2023-04-09T01:03:04.769Z,18.50
2023-04-09T01:04:07.388Z,18.50
2023-04-09T01:05:11.339Z,18.40
2023-04-09T01:06:38.644Z,18.40
2023-04-09T01:08:03.864Z,18.20
2023-04-09T01:09:28.556Z,18.10
2023-04-09T01:10:42.724Z,18.00
2023-04-09T01:12:08.763Z,18.00
2023-04-09T01:13:20.369Z,17.90
2023-04-09T01:14:59.942Z,17.90
2023-04-09T01:16:03.825Z,17.90
2023-04-09T01:17:35.260Z,18.00
2023-04-09T01:18:52.933Z,18.00
2023-04-09T01:20:13.118Z,18.00
2023-04-09T01:21:20.514Z,18.00
2023-04-09T01:22:53.641Z,18.10
2023-04-09T01:24:13.393Z,18.30
2023-04-09T01:25:34.777Z,18.30
2023-04-09T01:26:55.498Z,18.40
2023-04-09T01:28:24.184Z,18.30
2023-04-09T01:29:32.096Z,18.20
2023-04-09T01:30:35.790Z,18.10
2023-04-09T01:31:40.083Z,18.10
2023-04-09T01:32:45.263Z,18.00
2023-04-09T01:33:48.268Z,17.90
2023-04-09T01:34:51.535Z,17.80
2023-04-09T01:35:55.189Z,17.80
2023-04-09T01:37:02.690Z,17.80
2023-04-09T01:38:05.458Z,18.10
2023-04-09T01:39:08.674Z,18.20
2023-04-09T01:40:11.565Z,18.20
2023-04-09T01:41:18.027Z,18.30
2023-04-09T01:42:21.547Z,18.30
2023-04-09T01:43:25.836Z,18.30
2023-04-09T01:44:29.076Z,18.40
2023-04-09T01:45:32.663Z,18.40
2023-04-09T01:46:36.777Z,18.50
2023-04-09T01:47:40.053Z,18.60
2023-04-09T01:48:43.849Z,18.70
2023-04-09T01:49:46.580Z,18.70
2023-04-09T01:50:50.523Z,18.90
2023-04-09T01:51:53.213Z,18.90
2023-04-09T01:52:56.239Z,19.00
2023-04-09T01:53:59.424Z,18.90
2023-04-09T01:55:02.353Z,18.80
2023-04-09T01:56:06.168Z,18.70
2023-04-09T01:57:08.651Z,18.60
2023-04-09T01:58:13.924Z,18.40
2023-04-09T01:59:16.576Z,18.20
2023-04-09T02:00:19.366Z,18.10
2023-04-09T02:01:32.599Z,18.00
2023-04-09T02:02:49.043Z,17.80
2023-04-09T02:03:56.617Z,17.80
2023-04-09T02:05:03.375Z,17.90
2023-04-09T02:06:17.023Z,17.90
2023-04-09T02:07:31.588Z,18.10
2023-04-09T02:08:35.585Z,18.00
2023-04-09T02:09:42.355Z,18.10
2023-04-09T02:10:53.609Z,18.20
2023-04-09T02:11:58.786Z,18.30
2023-04-09T02:13:03.262Z,18.30
2023-04-09T02:14:11.174Z,18.20
2023-04-09T02:15:14.508Z,18.30
2023-04-09T02:16:17.918Z,18.40
2023-04-09T02:17:20.940Z,18.50
2023-04-09T02:18:25.772Z,18.60
2023-04-09T02:19:41.497Z,18.70
2023-04-09T02:20:43.964Z,18.80
2023-04-09T02:21:47.226Z,18.80
2023-04-09T02:22:49.773Z,18.70
2023-04-09T02:23:52.571Z,18.70
2023-04-09T02:24:55.128Z,18.70
2023-04-09T02:25:57.739Z,18.70
2023-04-09T02:27:00.363Z,18.70
2023-04-09T02:28:05.541Z,18.70
2023-04-09T02:29:08.107Z,18.70
2023-04-09T02:30:11.156Z,18.70
2023-04-09T02:31:14.326Z,18.50
2023-04-09T02:46:41.315Z,18.00
2023-04-09T02:50:22.852Z,17.90
2023-04-09T02:51:28.352Z,17.70
2023-04-09T02:52:31.102Z,17.60
2023-04-09T02:53:33.910Z,17.60
2023-04-09T02:54:36.555Z,17.50
2023-04-09T02:55:39.071Z,17.50
2023-04-09T02:56:43.755Z,17.40
2023-04-09T02:57:48.492Z,17.30
2023-04-09T02:58:54.377Z,17.20
2023-04-09T02:59:57.607Z,17.20
2023-04-09T03:01:00.325Z,17.20
2023-04-09T03:02:02.891Z,17.20
2023-04-09T03:03:05.684Z,17.20
2023-04-09T03:04:08.411Z,17.10
2023-04-09T03:05:11.098Z,17.00
2023-04-09T03:06:13.712Z,17.00
2023-04-09T03:07:16.281Z,17.20
2023-04-09T03:08:18.790Z,17.50
2023-04-09T03:09:21.234Z,17.80
2023-04-09T03:10:24.627Z,18.10
2023-04-09T03:11:27.173Z,18.30
2023-04-09T03:12:29.640Z,18.50
2023-04-09T03:13:32.125Z,18.70
2023-04-09T03:14:35.317Z,18.90
2023-04-09T03:15:38.071Z,19.10
2023-04-09T03:16:40.505Z,19.30
2023-04-09T03:17:43.050Z,19.40
2023-04-09T03:18:45.676Z,19.50
2023-04-09T03:19:48.620Z,19.60
2023-04-09T03:20:51.930Z,19.70
2023-04-09T03:21:54.492Z,19.80
2023-04-09T03:23:00.595Z,19.80
2023-04-09T03:24:14.284Z,19.80
2023-04-09T03:25:19.433Z,19.90
2023-04-09T03:26:22.284Z,19.90
2023-04-09T03:27:25.952Z,19.90
2023-04-09T03:28:32.053Z,19.90
2023-04-09T03:29:34.665Z,20.00
2023-04-09T03:30:37.313Z,20.00
2023-04-09T03:31:42.028Z,20.00
2023-04-09T03:32:44.676Z,20.00
2023-04-09T03:33:49.020Z,20.00
2023-04-09T03:34:53.679Z,20.10
2023-04-09T03:35:58.133Z,20.10
2023-04-09T03:37:17.534Z,20.10
2023-04-09T03:38:20.555Z,20.10
2023-04-09T03:39:22.977Z,20.10
2023-04-09T03:40:25.529Z,20.10
2023-04-09T03:41:27.939Z,20.20
2023-04-09T03:42:32.016Z,20.20
2023-04-09T03:43:34.829Z,20.20
2023-04-09T03:44:37.226Z,20.30
2023-04-09T03:45:45.629Z,20.30
2023-04-09T03:46:57.095Z,20.30
2023-04-09T03:48:00.855Z,20.30
2023-04-09T03:49:03.361Z,20.30
2023-04-09T03:50:16.687Z,20.30
2023-04-09T03:51:28.506Z,20.30
2023-04-09T03:52:34.004Z,20.30
2023-04-09T03:53:41.952Z,20.30
2023-04-09T03:54:45.300Z,20.40
2023-04-09T03:55:52.690Z,20.40
2023-04-09T03:56:59.771Z,20.40
2023-04-09T03:58:02.202Z,20.40
2023-04-09T03:59:07.828Z,20.40
2023-04-09T04:00:17.199Z,20.40
2023-04-09T04:01:38.919Z,20.40
2023-04-09T04:02:41.871Z,20.50
2023-04-09T04:03:45.502Z,20.50
2023-04-09T04:05:04.009Z,20.50
2023-04-09T04:06:12.317Z,20.50
2023-04-09T04:07:37.516Z,20.50
2023-04-09T04:08:44.984Z,20.50
2023-04-09T04:09:47.869Z,20.50
2023-04-09T04:10:52.799Z,20.50
2023-04-09T04:11:58.999Z,20.50
2023-04-09T04:13:15.316Z,20.50
2023-04-09T04:14:31.644Z,20.50
2023-04-09T04:15:43.087Z,20.50
2023-04-09T04:16:47.962Z,20.50
2023-04-09T04:17:54.802Z,20.50
2023-04-09T04:19:09.680Z,20.50
2023-04-09T04:20:18.222Z,20.50
2023-04-09T04:21:33.287Z,20.30
2023-04-09T04:22:37.697Z,19.60
2023-04-09T04:23:40.984Z,19.60
2023-04-09T04:24:56.228Z,19.70
2023-04-09T04:25:59.357Z,20.00
2023-04-09T04:27:06.842Z,20.10
2023-04-09T04:28:11.142Z,20.10
2023-04-09T04:29:16.930Z,20.20
2023-04-09T04:30:42.699Z,20.30
2023-04-09T04:31:45.750Z,20.30
2023-04-09T04:32:50.786Z,20.30
2023-04-09T04:33:53.169Z,20.40
2023-04-09T04:34:55.687Z,20.40
2023-04-09T04:36:09.227Z,20.40
2023-04-09T04:37:15.968Z,20.50
2023-04-09T04:38:18.834Z,20.50
2023-04-09T04:39:21.219Z,20.50
2023-04-09T04:40:43.920Z,20.50
2023-04-09T04:41:46.425Z,20.50
2023-04-09T04:42:53.953Z,20.50
2023-04-09T04:43:57.300Z,20.60
2023-04-09T04:45:00.907Z,20.60
2023-04-09T04:46:20.726Z,20.60
2023-04-09T04:47:23.860Z,20.60
2023-04-09T04:48:28.088Z,20.60
2023-04-09T04:49:31.715Z,20.60
2023-04-09T04:50:35.673Z,20.60
2023-04-09T04:51:42.620Z,20.60
2023-04-09T04:52:48.308Z,20.60
2023-04-09T04:53:50.774Z,20.60
2023-04-09T04:54:54.050Z,20.60
2023-04-09T04:55:59.024Z,20.70
2023-04-09T04:57:03.426Z,20.70
2023-04-09T04:58:12.935Z,20.70
2023-04-09T04:59:22.986Z,20.70
2023-04-09T05:00:33.767Z,20.80
2023-04-09T05:01:38.584Z,20.80
2023-04-09T05:02:44.703Z,20.80
2023-04-09T05:03:47.638Z,20.80
2023-04-09T05:05:04.177Z,20.80
2023-04-09T05:06:15.220Z,20.80
2023-04-09T05:07:20.416Z,20.80
2023-04-09T05:08:29.180Z,20.90
2023-04-09T05:09:32.958Z,20.80
2023-04-09T05:10:42.883Z,20.80
2023-04-09T05:11:46.377Z,20.90
2023-04-09T05:12:54.018Z,20.90
2023-04-09T05:14:04.930Z,20.90
2023-04-09T05:15:08.295Z,20.90
2023-04-09T05:16:19.670Z,20.90
2023-04-09T05:17:28.972Z,20.90
2023-04-09T05:18:31.486Z,21.00
2023-04-09T05:19:33.865Z,21.00
2023-04-09T05:20:38.690Z,21.00
2023-04-09T05:21:47.166Z,21.00
2023-04-09T05:22:55.439Z,21.00
2023-04-09T05:24:04.737Z,21.00
2023-04-09T05:25:09.280Z,21.00
2023-04-09T05:26:14.340Z,21.00
2023-04-09T05:27:27.640Z,21.00
2023-04-09T05:28:35.023Z,21.00
2023-04-09T05:29:46.808Z,21.00
2023-04-09T05:30:50.391Z,21.00
2023-04-09T05:31:53.989Z,21.00
2023-04-09T05:33:02.601Z,21.00
2023-04-09T05:34:06.602Z,21.10
2023-04-09T05:35:13.705Z,21.10
2023-04-09T05:36:19.795Z,21.10
2023-04-09T05:37:22.213Z,21.10
2023-04-09T05:38:27.296Z,21.10
2023-04-09T05:39:33.477Z,21.10
2023-04-09T05:40:37.289Z,21.10
2023-04-09T05:41:46.593Z,21.10
2023-04-09T05:43:07.986Z,21.10
2023-04-09T05:44:15.328Z,21.10
2023-04-09T05:45:18.605Z,21.10
2023-04-09T05:46:27.451Z,21.10
2023-04-09T05:47:30.496Z,21.10
2023-04-09T05:48:38.295Z,21.10
2023-04-09T05:49:41.592Z,21.10
2023-04-09T05:50:55.570Z,21.10
2023-04-09T05:52:01.362Z,21.10
2023-04-09T05:53:07.481Z,21.10
2023-04-09T05:54:14.918Z,21.10
2023-04-09T05:55:17.724Z,21.10
2023-04-09T05:56:27.098Z,21.10
2023-04-09T05:57:32.694Z,21.10
2023-04-09T05:58:38.485Z,21.10
2023-04-09T05:59:41.146Z,21.10
2023-04-09T06:00:43.678Z,21.10
2023-04-09T06:01:46.445Z,21.10
2023-04-09T06:02:49.073Z,21.10
2023-04-09T06:03:52.860Z,21.10
2023-04-09T06:04:57.377Z,21.10
2023-04-09T06:06:00.661Z,21.10
2023-04-09T06:07:03.550Z,21.10
2023-04-09T06:08:06.195Z,21.10
2023-04-09T06:09:08.817Z,21.20
2023-04-09T06:10:13.317Z,21.20
2023-04-09T06:11:15.959Z,21.20
2023-04-09T06:12:18.629Z,21.20
2023-04-09T06:13:21.477Z,21.20
2023-04-09T06:14:24.129Z,21.20
2023-04-09T06:15:27.601Z,21.20
2023-04-09T06:16:30.555Z,21.20
2023-04-09T06:17:33.222Z,21.20
2023-04-09T06:18:36.845Z,21.20
2023-04-09T06:19:39.796Z,21.20
2023-04-09T06:20:45.342Z,21.20
2023-04-09T06:21:47.873Z,21.20
2023-04-09T06:22:50.335Z,21.20
2023-04-09T06:23:53.890Z,21.20
2023-04-09T06:24:57.064Z,21.20
2023-04-09T06:26:00.908Z,21.20
2023-04-09T06:27:03.304Z,21.20
2023-04-09T06:28:05.737Z,21.20
2023-04-09T06:29:08.063Z,21.20
2023-04-09T06:30:11.745Z,21.20
2023-04-09T06:31:15.551Z,21.20
2023-04-09T06:32:18.289Z,21.20
2023-04-09T06:33:21.051Z,21.20
2023-04-09T06:34:23.480Z,21.20
2023-04-09T06:35:26.277Z,21.20
2023-04-09T06:36:28.677Z,21.20
2023-04-09T06:37:31.099Z,21.20
2023-04-09T06:38:33.399Z,21.20
2023-04-09T06:39:37.409Z,21.20
2023-04-09T06:40:41.466Z,21.30
2023-04-09T06:41:44.275Z,21.20
2023-04-09T06:42:58.934Z,21.20
2023-04-09T06:44:12.055Z,21.20
2023-04-09T06:45:14.420Z,21.30
2023-04-09T06:46:20.073Z,21.30
2023-04-09T06:47:22.745Z,21.20
2023-04-09T06:48:25.298Z,21.30
2023-04-09T06:49:27.686Z,21.20
2023-04-09T06:50:30.339Z,21.30
2023-04-09T06:51:32.838Z,21.30
2023-04-09T06:52:35.390Z,21.30
2023-04-09T06:53:40.623Z,21.00
2023-04-09T06:54:44.064Z,20.80
2023-04-09T06:55:46.490Z,20.50
2023-04-09T06:56:48.855Z,20.40
2023-04-09T06:57:51.632Z,20.40
2023-04-09T06:58:54.305Z,20.40
2023-04-09T06:59:56.792Z,20.30
2023-04-09T07:01:00.128Z,20.30
2023-04-09T07:02:03.139Z,20.50
2023-04-09T07:03:08.151Z,20.60
2023-04-09T07:04:14.130Z,20.80
2023-04-09T07:05:16.708Z,20.80
2023-04-09T07:06:19.140Z,20.90
2023-04-09T07:07:23.750Z,20.90
2023-04-09T07:08:28.566Z,21.00
2023-04-09T07:09:31.561Z,21.00
2023-04-09T07:10:34.055Z,21.10
2023-04-09T07:11:36.905Z,21.10
2023-04-09T07:12:39.313Z,21.10
2023-04-09T07:13:41.777Z,21.20
2023-04-09T07:14:44.229Z,21.20
2023-04-09T07:15:46.651Z,21.10
2023-04-09T07:16:49.096Z,21.20
2023-04-09T07:17:51.714Z,21.20
2023-04-09T07:18:54.265Z,21.20
2023-04-09T07:19:56.787Z,21.20
2023-04-09T07:20:59.457Z,21.20
2023-04-09T07:22:01.962Z,21.30
2023-04-09T07:23:04.514Z,21.20
2023-04-09T07:24:07.403Z,21.20
2023-04-09T07:25:10.489Z,21.20
2023-04-09T07:26:12.912Z,21.30
2023-04-09T07:27:16.568Z,21.20
2023-04-09T07:28:21.116Z,21.30
2023-04-09T07:29:24.136Z,21.20
2023-04-09T07:33:39.364Z,21.10
2023-04-09T07:34:44.877Z,21.10
2023-04-09T07:35:47.472Z,21.10
2023-04-09T07:36:50.222Z,21.10
2023-04-09T07:37:52.599Z,21.10
2023-04-09T07:38:56.581Z,21.00
2023-04-09T07:39:59.346Z,21.00
2023-04-09T07:41:01.990Z,21.00
2023-04-09T07:42:06.099Z,21.10
2023-04-09T07:43:08.573Z,21.10
2023-04-09T07:44:11.283Z,21.10
2023-04-09T07:45:13.826Z,21.00
2023-04-09T07:46:22.949Z,21.00
2023-04-09T07:47:26.177Z,20.90
2023-04-09T07:48:28.949Z,20.90
2023-04-09T07:49:31.518Z,21.00
2023-04-09T07:52:06.803Z,21.10
2023-04-09T07:53:09.369Z,21.10
2023-04-09T07:54:11.834Z,21.20
2023-04-09T07:55:16.268Z,21.20
2023-04-09T07:56:19.617Z,21.30
2023-04-09T07:57:22.084Z,21.30
2023-04-09T07:58:25.026Z,21.30
2023-04-09T07:59:28.058Z,21.30
2023-04-09T08:00:30.684Z,21.30
2023-04-09T08:01:33.124Z,21.30
2023-04-09T08:02:36.043Z,21.40
2023-04-09T08:03:38.637Z,21.40
2023-04-09T08:04:41.294Z,21.40
2023-04-09T08:05:45.867Z,21.40
2023-04-09T08:06:50.799Z,21.40
2023-04-09T08:07:53.388Z,21.40
2023-04-09T08:08:56.787Z,21.40
2023-04-09T08:09:59.390Z,21.40
2023-04-09T08:12:39.769Z,21.40
2023-04-09T08:13:42.064Z,21.40
2023-04-09T08:14:44.359Z,21.50
2023-04-09T08:15:46.766Z,21.50
2023-04-09T08:16:50.534Z,21.50
2023-04-09T08:17:53.474Z,21.50
2023-04-09T08:18:56.624Z,21.50
2023-04-09T08:20:00.735Z,21.40
2023-04-09T08:28:14.721Z,21.40
2023-04-09T08:29:29.060Z,21.40
2023-04-09T08:30:50.298Z,21.50
2023-04-09T08:31:52.819Z,21.50
2023-04-09T08:32:55.586Z,21.50
2023-04-09T08:33:58.204Z,21.50
2023-04-09T08:35:00.883Z,21.30
2023-04-09T08:36:07.854Z,20.90
2023-04-09T08:37:10.401Z,20.60
2023-04-09T08:38:15.848Z,20.60
2023-04-09T08:39:21.461Z,20.70
2023-04-09T08:43:15.601Z,20.60
2023-04-09T08:44:18.622Z,20.90
2023-04-09T08:45:21.021Z,21.10
2023-04-09T08:46:24.377Z,21.10
2023-04-09T08:47:27.745Z,21.20
2023-04-09T08:48:30.231Z,21.20
2023-04-09T08:49:33.503Z,21.30
2023-04-09T08:50:36.775Z,21.30
2023-04-09T08:51:40.319Z,21.30
2023-04-09T08:52:45.989Z,21.30
2023-04-09T08:53:53.560Z,21.30
2023-04-09T08:54:56.267Z,21.30
2023-04-09T08:56:00.442Z,21.40
2023-04-09T08:57:07.516Z,21.40
2023-04-09T08:58:10.854Z,21.40
2023-04-09T08:59:21.005Z,21.40
2023-04-09T09:00:24.338Z,21.40
2023-04-09T09:01:29.041Z,21.40
2023-04-09T09:02:32.233Z,21.50
2023-04-09T09:03:59.368Z,21.50
2023-04-09T09:05:01.964Z,21.50
2023-04-09T09:06:04.454Z,21.50
2023-04-09T09:07:09.883Z,21.50
2023-04-09T09:08:33.290Z,21.50
2023-04-09T09:09:58.730Z,21.50
2023-04-09T09:14:19.452Z,21.50
2023-04-09T09:15:27.872Z,21.50
2023-04-09T09:16:31.274Z,21.50
2023-04-09T09:17:52.802Z,21.50
2023-04-09T09:18:58.634Z,21.50
2023-04-09T09:20:19.943Z,21.50
2023-04-09T09:21:22.928Z,21.40
2023-04-09T09:22:25.904Z,21.40
2023-04-09T09:23:37.891Z,21.40
2023-04-09T09:24:50.404Z,21.40
2023-04-09T09:25:53.036Z,21.50
2023-04-09T09:26:55.815Z,21.50
2023-04-09T09:28:11.515Z,21.50
2023-04-09T09:29:13.935Z,21.50
2023-04-09T09:30:25.010Z,21.50
2023-04-09T09:31:27.571Z,21.60
2023-04-09T09:32:30.730Z,21.60
2023-04-09T09:33:33.970Z,21.60
2023-04-09T09:34:36.517Z,21.60
2023-04-09T09:35:49.434Z,21.60
2023-04-09T09:36:51.897Z,21.60
2023-04-09T09:38:04.895Z,21.60
2023-04-09T09:39:12.026Z,21.60
2023-04-09T09:46:31.771Z,21.60
2023-04-09T09:47:35.464Z,21.60
2023-04-09T09:48:39.367Z,21.60
2023-04-09T09:49:41.927Z,21.60
2023-04-09T09:50:46.612Z,21.60
2023-04-09T09:51:49.066Z,21.60
2023-04-09T09:52:57.108Z,21.60
2023-04-09T09:53:59.929Z,21.40
2023-04-09T09:55:05.344Z,21.20
2023-04-09T09:56:15.731Z,21.10
2023-04-09T09:57:20.035Z,21.00
2023-04-09T09:58:32.050Z,21.00
2023-04-09T09:59:40.411Z,21.00
2023-04-09T10:00:44.781Z,20.90
2023-04-09T10:01:51.817Z,20.90
2023-04-09T10:03:03.145Z,21.00
2023-04-09T10:04:06.358Z,21.20
2023-04-09T10:05:09.183Z,21.20
2023-04-09T10:06:13.061Z,21.30
2023-04-09T10:07:16.160Z,21.30
2023-04-09T10:08:19.423Z,21.40
2023-04-09T10:09:23.285Z,21.40
2023-04-09T10:10:27.224Z,21.40
2023-04-09T10:11:31.804Z,21.40
2023-04-09T10:12:34.660Z,21.40
2023-04-09T10:13:43.536Z,21.50
2023-04-09T10:14:46.414Z,21.50
2023-04-09T10:15:49.437Z,21.50
2023-04-09T10:16:52.275Z,21.50
2023-04-09T10:17:56.300Z,21.50
2023-04-09T10:19:02.110Z,21.50
2023-04-09T10:20:41.787Z,21.50
2023-04-09T10:22:05.634Z,21.50
2023-04-09T10:23:17.336Z,21.50
2023-04-09T10:24:20.195Z,21.50
2023-04-09T10:25:22.614Z,21.50
2023-04-09T10:26:30.860Z,21.50
2023-04-09T10:27:33.520Z,21.50
2023-04-09T10:28:40.840Z,21.50
2023-04-09T10:29:45.692Z,21.50
2023-04-09T10:30:48.202Z,21.50
2023-04-09T10:32:06.770Z,21.60
2023-04-09T10:33:14.384Z,21.60
2023-04-09T10:34:19.247Z,21.60
2023-04-09T10:35:28.165Z,21.60
2023-04-09T10:36:31.493Z,21.60
2023-04-09T10:37:36.059Z,21.60
2023-04-09T10:38:41.475Z,21.60
2023-04-09T10:39:48.042Z,21.60
2023-04-09T10:40:53.461Z,21.60
2023-04-09T10:42:00.100Z,21.60
2023-04-09T10:43:03.913Z,21.60
2023-04-09T10:44:07.373Z,21.60
2023-04-09T10:45:15.029Z,21.60
2023-04-09T10:46:34.486Z,21.60
2023-04-09T10:47:39.702Z,21.60
2023-04-09T10:48:43.741Z,21.60
2023-04-09T10:49:46.157Z,21.60
2023-04-09T10:50:54.383Z,21.60
2023-04-09T10:52:02.918Z,21.60
2023-04-09T10:53:05.255Z,21.60
2023-04-09T10:54:34.721Z,21.60
2023-04-09T10:55:38.375Z,21.60
2023-04-09T10:56:40.885Z,21.60
2023-04-09T10:57:43.399Z,21.60
2023-04-09T10:58:45.709Z,21.70
2023-04-09T10:59:52.138Z,21.60
2023-04-09T11:00:54.577Z,21.60
2023-04-09T11:01:56.982Z,21.70
2023-04-09T11:03:13.465Z,21.70
2023-04-09T11:04:20.422Z,21.70
2023-04-09T11:05:34.121Z,21.70
2023-04-09T11:06:40.247Z,21.70
2023-04-09T11:07:51.855Z,21.70
2023-04-09T11:08:56.925Z,21.70
2023-04-09T11:09:59.478Z,21.70
2023-04-09T11:11:02.657Z,21.70
2023-04-09T11:12:05.285Z,21.70
2023-04-09T11:13:17.722Z,21.70
2023-04-09T11:14:20.590Z,21.60
2023-04-09T11:15:22.980Z,21.70
2023-04-09T11:16:27.902Z,21.70
2023-04-09T11:17:36.687Z,21.70
2023-04-09T11:18:39.730Z,21.60
2023-04-09T11:19:42.072Z,21.70
2023-04-09T11:20:44.815Z,21.70
2023-04-09T11:21:48.347Z,21.70
2023-04-09T11:22:53.201Z,21.70
2023-04-09T11:23:55.667Z,21.70
2023-04-09T11:24:57.877Z,21.70
2023-04-09T11:26:01.779Z,21.70
2023-04-09T11:27:04.432Z,21.70
2023-04-09T11:28:08.081Z,21.70
2023-04-09T11:29:10.653Z,21.70
2023-04-09T11:30:13.174Z,21.70
2023-04-09T11:31:16.855Z,21.70
2023-04-09T11:32:19.353Z,21.70
2023-04-09T11:33:22.404Z,21.70
2023-04-09T11:34:28.450Z,21.70
2023-04-09T11:35:33.860Z,21.70
2023-04-09T11:36:36.491Z,21.70
2023-04-09T11:37:41.209Z,21.70
2023-04-09T11:38:43.651Z,21.70
2023-04-09T11:39:51.533Z,21.70
2023-04-09T11:40:57.995Z,21.70
2023-04-09T11:42:00.799Z,21.70
2023-04-09T11:43:03.450Z,21.60
2023-04-09T11:44:06.114Z,21.60
2023-04-09T11:45:10.517Z,21.60
2023-04-09T11:46:12.973Z,21.60
2023-04-09T11:47:18.635Z,21.60
2023-04-09T11:48:23.306Z,21.60
2023-04-09T11:49:25.964Z,21.60
2023-04-09T11:50:28.578Z,21.60
2023-04-09T11:51:32.629Z,21.70
2023-04-09T11:52:38.444Z,21.70
2023-04-09T11:53:41.053Z,21.70
2023-04-09T11:54:49.311Z,21.70
2023-04-09T11:55:54.123Z,21.70
2023-04-09T11:56:58.651Z,21.70
2023-04-09T11:58:01.679Z,21.60
2023-04-09T11:59:04.444Z,21.50
2023-04-09T12:00:14.325Z,21.40
2023-04-09T12:01:17.261Z,21.30
2023-04-09T12:02:20.148Z,21.30
2023-04-09T12:03:31.346Z,21.20
2023-04-09T12:04:34.738Z,21.30
2023-04-09T12:05:39.099Z,21.40
2023-04-09T12:06:43.399Z,21.40
2023-04-09T12:07:55.645Z,21.50
2023-04-09T12:08:59.669Z,21.50
2023-04-09T12:10:10.421Z,21.50
2023-04-09T12:11:15.477Z,21.40
2023-04-09T12:12:24.029Z,21.40
2023-04-09T12:13:34.004Z,21.30
2023-04-09T12:14:36.659Z,21.30
2023-04-09T12:15:41.798Z,21.20
2023-04-09T12:16:45.646Z,21.20
2023-04-09T12:17:50.441Z,21.10
2023-04-09T12:18:55.907Z,21.10
2023-04-09T12:19:58.410Z,21.10
2023-04-09T12:21:02.590Z,21.20
2023-04-09T12:22:05.706Z,21.10
2023-04-09T12:23:10.117Z,21.00
2023-04-09T12:24:14.930Z,21.00
2023-04-09T12:25:17.576Z,20.90
2023-04-09T12:26:19.971Z,20.80
2023-04-09T12:27:22.529Z,20.80
2023-04-09T12:28:25.909Z,20.80
2023-04-09T12:29:29.875Z,20.90
2023-04-09T12:30:33.666Z,20.90
2023-04-09T12:31:36.781Z,20.80
2023-04-09T12:32:39.520Z,20.80
2023-04-09T12:33:42.773Z,20.80
2023-04-09T12:34:47.433Z,20.70
2023-04-09T12:35:50.061Z,20.70
2023-04-09T12:36:53.660Z,20.60
2023-04-09T12:37:56.227Z,20.60
2023-04-09T12:38:58.728Z,20.60
2023-04-09T12:40:04.627Z,20.60
2023-04-09T12:41:07.214Z,20.50
2023-04-09T12:42:10.022Z,20.50
2023-04-09T12:43:12.632Z,20.40
2023-04-09T12:44:15.226Z,20.50
2023-04-09T12:45:19.486Z,20.50
2023-04-09T12:46:22.152Z,20.50
2023-04-09T12:47:25.719Z,20.50
2023-04-09T12:48:28.535Z,20.60
2023-04-09T12:50:56.854Z,20.70
2023-04-09T12:52:00.495Z,20.70
2023-04-09T12:53:03.401Z,20.60
2023-04-09T12:54:06.026Z,20.70
2023-04-09T12:55:09.744Z,20.80
2023-04-09T12:56:12.566Z,20.90
2023-04-09T12:57:15.544Z,20.90
2023-04-09T12:58:18.103Z,21.00
2023-04-09T12:59:20.784Z,21.00
2023-04-09T13:00:23.272Z,21.10
2023-04-09T13:01:26.040Z,21.20
2023-04-09T13:02:28.761Z,21.20
2023-04-09T13:03:31.524Z,21.20
2023-04-09T13:04:34.359Z,21.20
2023-04-09T13:05:36.977Z,21.30
2023-04-09T13:06:39.447Z,21.30
2023-04-09T13:07:43.495Z,21.30
2023-04-09T13:08:46.158Z,21.30
2023-04-09T13:09:52.344Z,21.40
2023-04-09T13:10:54.841Z,21.40
2023-04-09T13:11:57.323Z,21.40
2023-04-09T13:12:59.808Z,21.40
2023-04-09T13:14:02.183Z,21.50
2023-04-09T13:15:05.076Z,21.40
2023-04-09T13:16:08.078Z,21.50
2023-04-09T13:17:10.978Z,21.40
2023-04-09T13:18:14.009Z,21.50
2023-04-09T13:19:17.114Z,21.50
2023-04-09T13:22:03.242Z,21.50
2023-04-09T13:23:08.960Z,21.50
2023-04-09T13:24:14.152Z,21.50
2023-04-09T13:25:16.918Z,21.50
2023-04-09T13:26:19.701Z,21.60
2023-04-09T13:27:22.218Z,21.50
2023-04-09T13:28:24.742Z,21.60
2023-04-09T13:29:29.223Z,21.60
2023-04-09T13:30:31.989Z,21.60
2023-04-09T13:31:36.394Z,21.60
2023-04-09T13:32:38.972Z,21.60
2023-04-09T13:33:41.438Z,21.60
2023-04-09T13:34:43.934Z,21.60
2023-04-09T13:35:46.777Z,21.60
2023-04-09T13:36:49.430Z,21.60
2023-04-09T13:37:52.062Z,21.60
2023-04-09T13:38:54.929Z,21.60
2023-04-09T13:39:57.650Z,21.60
2023-04-09T13:41:01.006Z,21.70
2023-04-09T13:42:12.586Z,21.70
2023-04-09T13:43:16.218Z,21.60
2023-04-09T13:44:18.621Z,21.70
2023-04-09T13:45:23.974Z,21.70
2023-04-09T13:46:28.067Z,21.70
2023-04-09T13:47:30.729Z,21.60
2023-04-09T13:48:34.808Z,21.60
2023-04-09T13:49:37.287Z,21.60
2023-04-09T13:50:39.754Z,21.40
2023-04-09T13:51:42.130Z,20.80
2023-04-09T13:52:44.505Z,20.30
2023-04-09T13:53:48.289Z,20.30
2023-04-09T13:54:53.422Z,19.80
2023-04-09T13:55:56.379Z,18.80
2023-04-09T13:56:59.911Z,17.70
2023-04-09T13:58:04.804Z,17.90
2023-04-09T13:59:07.666Z,18.20
2023-04-09T14:00:10.497Z,18.10
2023-04-09T14:01:13.541Z,18.00
2023-04-09T14:02:17.971Z,17.90
2023-04-09T14:03:21.268Z,18.00
2023-04-09T14:04:24.052Z,17.80
2023-04-09T14:05:27.559Z,18.00
2023-04-09T14:06:30.105Z,18.20
2023-04-09T14:07:32.672Z,17.90
2023-04-09T14:08:35.875Z,18.00
2023-04-09T14:09:38.203Z,17.80
2023-04-09T14:10:40.804Z,17.40
2023-04-09T14:11:43.234Z,17.40
2023-04-09T14:12:46.069Z,17.50
2023-04-09T14:13:48.689Z,17.70
2023-04-09T14:14:51.686Z,18.00
2023-04-09T14:15:54.097Z,18.20
2023-04-09T14:16:56.794Z,18.30
2023-04-09T14:17:59.788Z,18.20
2023-04-09T14:19:02.386Z,18.20
2023-04-09T14:20:05.131Z,18.10
2023-04-09T14:21:10.254Z,18.20
2023-04-09T14:22:13.059Z,18.40
2023-04-09T14:23:15.777Z,18.40
2023-04-09T14:24:20.022Z,18.20
2023-04-09T14:25:22.520Z,18.30
2023-04-09T14:26:24.950Z,18.40
2023-04-09T14:27:27.371Z,18.30
2023-04-09T14:28:30.256Z,18.30
2023-04-09T14:29:33.020Z,18.40
2023-04-09T14:30:35.547Z,18.50
2023-04-09T14:31:38.014Z,18.50
2023-04-09T14:32:40.506Z,18.20
2023-04-09T14:33:42.986Z,18.00
2023-04-09T14:34:45.628Z,18.10
2023-04-09T14:35:48.184Z,18.00
2023-04-09T14:36:50.564Z,17.90
2023-04-09T14:37:52.976Z,17.80
2023-04-09T14:38:57.859Z,17.70
2023-04-09T14:40:01.019Z,17.90
2023-04-09T14:41:03.538Z,17.70
2023-04-09T14:42:08.547Z,17.50
2023-04-09T14:43:11.134Z,17.50
2023-04-09T14:44:13.538Z,17.60
2023-04-09T14:45:16.692Z,17.60
2023-04-09T14:46:22.351Z,17.70